Time;durP1;ratioP1;P1;durP2;ratioP2;P2;SDS_P1;SDS_P2;PMS_P1;PMS_P2;Temp;Humidity;BMP_temperature;BMP_pressure;BME280_temperature;BME280_humidity;BME280_pressure;Samples;Min_cycle;Max_cycle;Signal;HPM_P1;HPM_P2
2023/05/23 00:00:21;;;;;;;7.45;4.18;;;22.40;65.20;;;;;;5073971;28;20040;-68
2023/05/23 00:02:47;;;;;;;4.78;3.85;;;22.40;65.20;;;;;;5072408;28;20037;-68
2023/05/23 00:05:14;;;;;;;6.10;3.67;;;22.40;65.20;;;;;;5073824;28;20041;-68
2023/05/23 00:07:39;;;;;;;5.93;4.18;;;22.40;65.20;;;;;;5073731;28;20044;-68
2023/05/23 00:10:05;;;;;;;4.85;3.60;;;22.40;65.20;;;;;;5074213;28;20044;-68
2023/05/23 00:12:32;;;;;;;5.03;3.58;;;22.40;65.10;;;;;;5073211;28;20083;-69
2023/05/23 00:14:58;;;;;;;5.78;3.58;;;22.40;65.10;;;;;;5073602;28;20056;-68
2023/05/23 00:17:24;;;;;;;5.50;3.78;;;22.40;65.10;;;;;;5074059;28;20037;-68
2023/05/23 00:19:50;;;;;;;4.95;3.30;;;22.30;65.10;;;;;;5073725;28;20076;-68
2023/05/23 00:22:16;;;;;;;5.50;3.78;;;22.40;65.10;;;;;;5073174;28;20079;-68
2023/05/23 00:24:42;;;;;;;5.07;3.65;;;22.30;65.10;;;;;;5072433;28;20454;-69
2023/05/23 00:27:07;;;;;;;5.20;3.55;;;22.40;65.10;;;;;;5072512;28;20056;-68
2023/05/23 00:29:33;;;;;;;5.38;3.53;;;22.30;65.10;;;;;;5071731;28;20041;-68
2023/05/23 00:31:58;;;;;;;6.53;4.15;;;22.30;65.00;;;;;;5073989;28;20105;-68
2023/05/23 00:34:24;;;;;;;5.53;4.05;;;22.30;65.00;;;;;;5072103;28;20435;-68
2023/05/23 00:36:49;;;;;;;5.00;3.70;;;22.30;65.00;;;;;;5073051;28;20036;-68
2023/05/23 00:39:18;;;;;;;5.75;3.85;;;22.30;65.00;;;;;;5072986;28;20045;-69
2023/05/23 00:41:50;;;;;;;6.07;4.05;;;22.30;65.00;;;;;;5073577;28;20067;-68
2023/05/23 00:44:16;;;;;;;5.43;3.55;;;22.30;65.00;;;;;;5072567;28;20044;-68
2023/05/23 00:46:42;;;;;;;6.35;3.85;;;22.30;65.00;;;;;;5073973;28;20033;-68
2023/05/23 00:49:08;;;;;;;6.85;4.05;;;22.30;65.00;;;;;;5072224;28;20044;-68
2023/05/23 00:51:35;;;;;;;6.22;4.00;;;22.30;65.00;;;;;;5054585;28;20134;-69
2023/05/23 00:54:00;;;;;;;6.22;3.90;;;22.30;65.00;;;;;;5073122;28;20173;-69
2023/05/23 00:56:26;;;;;;;7.35;4.00;;;22.30;65.00;;;;;;5055048;28;20055;-68
2023/05/23 00:58:53;;;;;;;6.50;3.97;;;22.30;64.90;;;;;;5054630;28;20123;-68
2023/05/23 01:01:18;;;;;;;6.60;4.45;;;22.30;64.90;;;;;;5071383;28;20048;-68
2023/05/23 01:03:44;;;;;;;5.65;4.00;;;22.30;64.90;;;;;;5072004;28;20041;-68
2023/05/23 01:06:10;;;;;;;6.45;4.10;;;22.30;64.90;;;;;;5071549;28;20415;-68
2023/05/23 01:08:36;;;;;;;6.65;4.43;;;22.30;64.90;;;;;;5054806;28;20052;-68
2023/05/23 01:11:05;;;;;;;6.70;4.10;;;22.30;64.90;;;;;;5072141;28;20040;-69
2023/05/23 01:13:38;;;;;;;5.00;3.58;;;22.30;64.90;;;;;;5055625;28;20076;-68
2023/05/23 01:16:05;;;;;;;6.18;4.03;;;22.30;64.80;;;;;;5071825;28;20098;-69
2023/05/23 01:18:40;;;;;;;7.68;4.43;;;22.20;64.80;;;;;;5071091;28;20040;-69
2023/05/23 01:21:11;;;;;;;7.45;4.82;;;22.30;64.80;;;;;;5072569;28;20044;-69
2023/05/23 01:24:01;;;;;;;6.05;3.85;;;22.20;64.70;;;;;;5071843;28;20045;-68
2023/05/23 01:26:51;;;;;;;6.30;4.43;;;22.20;64.70;;;;;;5070501;28;20044;-69
2023/05/23 01:29:23;;;;;;;6.45;4.38;;;22.20;64.70;;;;;;5071559;28;20044;-68
2023/05/23 01:31:51;;;;;;;7.65;4.32;;;22.20;64.70;;;;;;5071423;28;20049;-68
2023/05/23 01:34:17;;;;;;;5.97;3.67;;;22.20;64.70;;;;;;5071665;28;20052;-69
2023/05/23 01:36:43;;;;;;;6.78;4.65;;;22.20;64.70;;;;;;5038254;28;20476;-68
2023/05/23 01:39:09;;;;;;;7.07;4.00;;;22.20;64.70;;;;;;5070412;28;20040;-68
2023/05/23 01:41:35;;;;;;;5.97;4.15;;;22.20;64.70;;;;;;5072195;28;20044;-68
2023/05/23 01:44:00;;;;;;;6.82;4.18;;;22.20;64.80;;;;;;5072740;28;20582;-68
2023/05/23 01:46:26;;;;;;;6.72;4.28;;;22.20;64.70;;;;;;5070081;28;20078;-69
2023/05/23 01:48:53;;;;;;;6.07;4.40;;;22.20;64.70;;;;;;5054775;28;20036;-68
2023/05/23 01:51:19;;;;;;;6.07;4.15;;;22.20;64.70;;;;;;5071151;28;20040;-69
2023/05/23 01:53:45;;;;;;;5.43;4.05;;;22.20;64.70;;;;;;5053844;28;20440;-69
2023/05/23 01:56:10;;;;;;;5.70;4.13;;;22.20;65.30;;;;;;5053488;28;20131;-69
2023/05/23 01:58:36;;;;;;;5.78;3.55;;;22.20;64.70;;;;;;5072630;28;20072;-69
2023/05/23 02:01:01;;;;;;;5.32;4.15;;;22.10;64.70;;;;;;5053078;28;20040;-69
2023/05/23 02:03:27;;;;;;;6.88;3.95;;;22.20;64.70;;;;;;5053783;28;20127;-69
2023/05/23 02:05:53;;;;;;;5.93;3.72;;;22.20;64.70;;;;;;5070168;28;20048;-70
2023/05/23 02:08:18;;;;;;;5.35;3.70;;;22.10;64.70;;;;;;5070272;28;20135;-70
2023/05/23 02:10:44;;;;;;;5.30;3.67;;;22.10;64.60;;;;;;5072189;28;20391;-69
2023/05/23 02:13:09;;;;;;;5.55;4.18;;;22.10;64.60;;;;;;5071911;28;20043;-70
2023/05/23 02:15:35;;;;;;;6.10;4.00;;;22.10;64.60;;;;;;5075008;28;20451;-70
2023/05/23 02:18:02;;;;;;;5.68;4.05;;;22.10;64.60;;;;;;5072136;28;20052;-69
2023/05/23 02:20:27;;;;;;;5.97;3.80;;;22.10;64.60;;;;;;5071610;28;20072;-69
2023/05/23 02:22:53;;;;;;;6.10;4.00;;;22.10;64.60;;;;;;5070127;28;20080;-69
2023/05/23 02:25:18;;;;;;;6.93;3.92;;;22.10;64.60;;;;;;5078642;28;20040;-69
2023/05/23 02:27:44;;;;;;;5.32;3.58;;;22.10;64.60;;;;;;5071746;28;20127;-70
2023/05/23 02:30:10;;;;;;;5.57;3.70;;;22.10;64.60;;;;;;5069620;28;20131;-69
2023/05/23 02:32:36;;;;;;;5.30;3.78;;;22.10;64.60;;;;;;5072236;28;20460;-69
2023/05/23 02:35:02;;;;;;;6.35;4.22;;;22.10;64.60;;;;;;5070381;28;20113;-69
2023/05/23 02:37:28;;;;;;;7.00;4.38;;;22.10;64.60;;;;;;5069698;28;20511;-70
2023/05/23 02:39:54;;;;;;;5.55;3.70;;;22.00;64.60;;;;;;5071671;28;20044;-70
2023/05/23 02:42:20;;;;;;;5.22;3.50;;;22.10;64.60;;;;;;5070988;28;20101;-70
2023/05/23 02:44:45;;;;;;;5.95;3.78;;;22.00;64.60;;;;;;5072131;28;20044;-69
2023/05/23 02:47:11;;;;;;;6.85;4.45;;;22.00;64.60;;;;;;5070127;28;20094;-70
2023/05/23 02:49:36;;;;;;;4.85;3.72;;;22.00;64.60;;;;;;5069933;28;20047;-69
2023/05/23 02:52:02;;;;;;;6.30;4.22;;;22.00;64.50;;;;;;5070268;28;20045;-70
2023/05/23 02:54:27;;;;;;;5.50;3.50;;;22.00;64.60;;;;;;5071157;28;20052;-70
2023/05/23 02:56:54;;;;;;;5.53;3.80;;;22.00;64.50;;;;;;5071203;28;20083;-69
2023/05/23 02:59:21;;;;;;;6.47;3.70;;;22.00;64.50;;;;;;5071536;28;20045;-69
2023/05/23 03:01:46;;;;;;;5.32;3.65;;;22.00;64.50;;;;;;5070120;28;20102;-69
2023/05/23 03:04:12;;;;;;;6.38;4.15;;;22.00;64.50;;;;;;5069285;28;20040;-69
2023/05/23 03:06:38;;;;;;;6.72;4.30;;;22.00;64.50;;;;;;5071493;28;20511;-70
2023/05/23 03:09:04;;;;;;;5.65;3.95;;;22.00;64.50;;;;;;5071395;28;20063;-69
2023/05/23 03:11:29;;;;;;;5.20;3.55;;;22.00;64.60;;;;;;5070559;28;20399;-69
2023/05/23 03:13:55;;;;;;;6.53;3.78;;;22.00;64.50;;;;;;5071388;28;20080;-69
2023/05/23 03:16:23;;;;;;;5.35;3.83;;;22.00;64.50;;;;;;5070168;28;20028;-69
2023/05/23 03:18:49;;;;;;;5.30;3.55;;;22.00;64.50;;;;;;5070863;28;20071;-70
2023/05/23 03:21:15;;;;;;;6.22;3.38;;;22.00;64.50;;;;;;5071396;28;20400;-70
2023/05/23 03:23:40;;;;;;;7.15;4.00;;;21.90;64.40;;;;;;5069963;28;20566;-69
2023/05/23 03:26:06;;;;;;;5.63;3.80;;;22.00;64.50;;;;;;5070204;28;20040;-70
2023/05/23 03:28:31;;;;;;;6.35;3.88;;;22.00;64.50;;;;;;5069991;28;20140;-70
2023/05/23 03:30:57;;;;;;;5.50;3.90;;;21.90;64.40;;;;;;5073529;28;20041;-69
2023/05/23 03:33:23;;;;;;;6.45;3.47;;;21.90;64.40;;;;;;5072891;28;20123;-69
2023/05/23 03:35:50;;;;;;;5.97;3.90;;;21.90;64.50;;;;;;5073576;28;20143;-69
2023/05/23 03:38:15;;;;;;;5.20;3.67;;;21.90;64.40;;;;;;5073275;28;20047;-69
2023/05/23 03:40:41;;;;;;;8.30;3.60;;;21.90;64.40;;;;;;5073980;28;20045;-69
2023/05/23 03:43:07;;;;;;;4.93;3.33;;;21.90;64.40;;;;;;5073154;28;20072;-69
2023/05/23 03:45:32;;;;;;;4.75;3.60;;;21.90;64.40;;;;;;5074745;28;20109;-69
2023/05/23 03:47:58;;;;;;;5.28;3.45;;;21.90;64.40;;;;;;5072654;28;20057;-69
2023/05/23 03:50:25;;;;;;;7.13;3.58;;;21.90;64.40;;;;;;5074214;28;20538;-69
2023/05/23 03:52:51;;;;;;;5.30;3.50;;;21.90;64.40;;;;;;5073990;28;20137;-69
2023/05/23 03:55:20;;;;;;;5.65;3.75;;;21.90;64.30;;;;;;5074519;28;20124;-69
2023/05/23 03:57:46;;;;;;;4.88;3.42;;;21.90;64.30;;;;;;5073002;28;20052;-69
2023/05/23 04:00:12;;;;;;;5.35;3.40;;;21.90;64.40;;;;;;5073138;28;20040;-69
2023/05/23 04:02:40;;;;;;;4.90;3.50;;;21.80;64.20;;;;;;5077722;28;20045;-69
2023/05/23 04:05:06;;;;;;;;;;;21.90;64.30;;;;;;5072947;28;20048;-69
2023/05/23 04:07:35;;;;;;;5.10;3.20;;;21.80;64.20;;;;;;5072706;28;19920;-69
2023/05/23 04:10:01;;;;;;;4.68;3.40;;;21.80;64.30;;;;;;5072974;28;20553;-69
2023/05/23 04:12:29;;;;;;;5.88;3.50;;;21.90;64.30;;;;;;5074095;28;20142;-69
2023/05/23 04:14:55;;;;;;;4.53;3.20;;;21.80;64.20;;;;;;5072214;28;20047;-69
2023/05/23 04:17:21;;;;;;;4.57;3.30;;;21.80;64.20;;;;;;5073703;28;20044;-69
2023/05/23 04:19:47;;;;;;;6.82;3.30;;;21.80;64.20;;;;;;5074107;28;20041;-69
2023/05/23 04:22:12;;;;;;;5.82;3.55;;;21.80;64.20;;;;;;5073199;28;20098;-69
2023/05/23 04:24:38;;;;;;;5.40;3.47;;;21.80;64.20;;;;;;5074276;28;20523;-69
2023/05/23 04:27:03;;;;;;;6.05;3.33;;;21.80;64.20;;;;;;5073825;28;20407;-69
2023/05/23 04:29:32;;;;;;;5.38;3.22;;;21.80;64.20;;;;;;5072754;28;20036;-69
2023/05/23 04:31:58;;;;;;;5.85;3.50;;;21.80;64.20;;;;;;5074003;28;20048;-69
2023/05/23 04:34:23;;;;;;;5.20;3.53;;;21.80;64.20;;;;;;5073599;28;20082;-69
2023/05/23 04:36:49;;;;;;;6.03;3.38;;;21.80;64.20;;;;;;5073167;28;20145;-69
2023/05/23 04:39:15;;;;;;;5.95;3.42;;;21.70;64.10;;;;;;5073521;28;20066;-69
2023/05/23 04:41:43;;;;;;;5.10;3.45;;;21.80;64.10;;;;;;5071028;28;20041;-69
2023/05/23 04:44:08;;;;;;;;;;;21.70;64.10;;;;;;5073053;28;20044;-69
2023/05/23 04:46:35;;;;;;;6.15;3.53;;;21.80;64.10;;;;;;5073752;28;19926;-69
2023/05/23 04:49:01;;;;;;;5.28;3.20;;;21.80;64.20;;;;;;5072747;28;20500;-69
2023/05/23 04:51:26;;;;;;;5.50;3.25;;;21.70;64.10;;;;;;5073115;28;20042;-69
2023/05/23 04:53:52;;;;;;;6.13;3.45;;;21.70;64.10;;;;;;5073560;28;20047;-69
2023/05/23 04:56:19;;;;;;;5.68;3.55;;;21.80;64.10;;;;;;5070861;28;20036;-70
2023/05/23 04:58:45;;;;;;;5.35;3.33;;;21.80;64.10;;;;;;5073576;28;20128;-69
2023/05/23 05:01:12;;;;;;;4.95;3.05;;;21.80;64.10;;;;;;5072774;28;20044;-69
2023/05/23 05:03:38;;;;;;;5.55;3.45;;;21.70;64.00;;;;;;5071112;28;20459;-69
2023/05/23 05:06:04;;;;;;;6.07;3.80;;;21.70;64.00;;;;;;5071719;28;20040;-69
2023/05/23 05:08:31;;;;;;;4.95;3.33;;;21.70;64.00;;;;;;5073085;28;20036;-69
2023/05/23 05:10:56;;;;;;;6.10;3.20;;;21.70;64.00;;;;;;5090836;28;20040;-69
2023/05/23 05:13:22;;;;;;;5.63;3.10;;;21.70;64.00;;;;;;5090187;28;20046;-69
2023/05/23 05:15:47;;;;;;;5.28;3.25;;;21.70;64.00;;;;;;5090957;28;20040;-69
2023/05/23 05:18:13;;;;;;;4.97;3.30;;;21.70;64.00;;;;;;5070803;28;20487;-69
2023/05/23 05:20:38;;;;;;;7.15;3.45;;;21.70;63.90;;;;;;5071573;28;20052;-69
2023/05/23 05:23:04;;;;;;;5.10;3.28;;;21.70;64.00;;;;;;5072898;28;20076;-69
2023/05/23 05:25:34;;;;;;;5.32;3.28;;;21.70;63.90;;;;;;5070727;28;20048;-69
2023/05/23 05:28:04;;;;;;;5.50;3.08;;;21.70;63.90;;;;;;5071267;28;20056;-69
2023/05/23 05:30:32;;;;;;;5.85;2.90;;;21.60;63.80;;;;;;5064396;28;20048;-69
2023/05/23 05:32:58;;;;;;;5.05;2.95;;;21.60;63.80;;;;;;5067758;28;20044;-69
2023/05/23 05:35:23;;;;;;;5.20;3.28;;;21.60;63.80;;;;;;5071377;28;20048;-69
2023/05/23 05:37:49;;;;;;;4.70;3.10;;;21.60;63.80;;;;;;5072590;28;20045;-69
2023/05/23 05:40:14;;;;;;;5.97;3.53;;;21.60;63.80;;;;;;5070134;28;20056;-69
2023/05/23 05:42:40;;;;;;;5.13;3.20;;;21.60;64.40;;;;;;5071184;28;20044;-68
2023/05/23 05:45:06;;;;;;;5.45;3.10;;;21.60;63.80;;;;;;5070771;28;20044;-69
2023/05/23 05:47:31;;;;;;;4.50;2.85;;;21.60;63.80;;;;;;5071590;28;20460;-69
2023/05/23 05:49:57;;;;;;;6.05;2.83;;;21.60;63.80;;;;;;5072607;28;20481;-70
2023/05/23 05:52:22;;;;;;;4.95;3.10;;;21.60;63.80;;;;;;5071371;28;20404;-69
2023/05/23 05:54:48;;;;;;;7.40;2.80;;;21.60;63.80;;;;;;5072337;28;20365;-74
2023/05/23 05:57:14;;;;;;;6.43;3.10;;;21.60;63.70;;;;;;5072164;28;20041;-71
2023/05/23 05:59:39;;;;;;;6.57;3.13;;;21.60;63.70;;;;;;5071578;28;20055;-67
2023/05/23 06:02:05;;;;;;;6.57;3.50;;;21.60;63.60;;;;;;5072323;28;20090;-69
2023/05/23 06:04:31;;;;;;;8.05;3.13;;;21.60;63.60;;;;;;5072706;28;20040;-69
2023/05/23 06:06:56;;;;;;;6.90;3.10;;;21.60;63.60;;;;;;5071122;28;20109;-67
2023/05/23 06:09:22;;;;;;;6.13;2.70;;;21.60;63.70;;;;;;5072048;28;20076;-68
2023/05/23 06:11:48;;;;;;;7.68;3.13;;;21.60;63.70;;;;;;5072200;28;20041;-68
2023/05/23 06:14:13;;;;;;;6.50;3.03;;;21.60;63.70;;;;;;5071071;28;20377;-67
2023/05/23 06:16:39;;;;;;;5.55;2.80;;;21.60;63.70;;;;;;5071515;28;20145;-67
2023/05/23 06:19:04;;;;;;;7.60;2.97;;;21.60;63.70;;;;;;5072443;28;20044;-68
2023/05/23 06:21:30;;;;;;;11.00;3.22;;;21.60;63.70;;;;;;5069036;28;20045;-67
2023/05/23 06:23:55;;;;;;;7.03;2.92;;;21.60;63.80;;;;;;5069569;28;20041;-66
2023/05/23 06:26:21;;;;;;;8.60;3.55;;;21.60;63.90;;;;;;5069269;28;20052;-67
2023/05/23 06:28:46;;;;;;;5.18;2.95;;;21.60;64.10;;;;;;5070106;28;20111;-68
2023/05/23 06:31:12;;;;;;;8.07;3.30;;;21.60;64.30;;;;;;5071925;28;20384;-67
2023/05/23 06:33:38;;;;;;;7.40;2.72;;;21.70;64.40;;;;;;5071864;28;20059;-68
2023/05/23 06:36:03;;;;;;;6.97;2.90;;;21.70;64.50;;;;;;5069922;28;20055;-67
2023/05/23 06:38:30;;;;;;;5.53;2.63;;;21.70;64.50;;;;;;5070225;28;20052;-67
2023/05/23 06:40:55;;;;;;;8.30;2.90;;;21.70;64.60;;;;;;5070496;28;20587;-66
2023/05/23 06:43:21;;;;;;;7.90;3.08;;;21.70;64.70;;;;;;5070789;28;20123;-68
2023/05/23 06:45:46;;;;;;;8.93;2.47;;;21.70;64.60;;;;;;5072004;28;20494;-67
2023/05/23 06:48:12;;;;;;;6.43;2.75;;;21.70;64.50;;;;;;5071642;28;20036;-67
2023/05/23 06:50:38;;;;;;;8.93;2.90;;;21.70;64.50;;;;;;5071244;28;20613;-67
2023/05/23 06:53:05;;;;;;;7.97;3.05;;;21.70;64.70;;;;;;5071668;28;20504;-67
2023/05/23 06:55:32;;;;;;;6.03;2.53;;;21.70;64.70;;;;;;5070861;28;20044;-67
2023/05/23 06:57:58;;;;;;;9.97;2.87;;;21.70;64.70;;;;;;5070283;28;20058;-69
2023/05/23 07:00:24;;;;;;;5.25;2.60;;;21.70;64.60;;;;;;5070312;28;20063;-68
2023/05/23 07:02:50;;;;;;;5.55;3.05;;;21.70;64.50;;;;;;5071098;28;20040;-67
2023/05/23 07:05:16;;;;;;;5.55;3.00;;;21.70;64.60;;;;;;5072728;28;20036;-67
2023/05/23 07:07:41;;;;;;;7.35;3.05;;;21.70;64.60;;;;;;5073978;28;20041;-67
2023/05/23 07:10:08;;;;;;;7.18;2.90;;;21.70;64.70;;;;;;5073245;28;20170;-67
2023/05/23 07:12:33;;;;;;;8.63;3.00;;;21.70;64.70;;;;;;5074933;28;20040;-69
2023/05/23 07:14:59;;;;;;;8.93;2.85;;;21.60;64.60;;;;;;5073384;28;20040;-68
2023/05/23 07:17:24;;;;;;;8.90;3.20;;;21.70;64.60;;;;;;5072845;28;20046;-68
2023/05/23 07:19:50;;;;;;;9.38;2.88;;;21.60;64.40;;;;;;5074950;28;20047;-68
2023/05/23 07:22:16;;;;;;;7.20;2.83;;;21.70;64.40;;;;;;5074867;28;20040;-68
2023/05/23 07:24:41;;;;;;;6.45;2.78;;;21.70;64.40;;;;;;5072932;28;20068;-68
2023/05/23 07:27:07;;;;;;;9.07;2.65;;;21.70;64.40;;;;;;5073160;28;20637;-68
2023/05/23 07:29:32;;;;;;;7.32;2.58;;;21.60;64.30;;;;;;5074902;28;20484;-68
2023/05/23 07:31:58;;;;;;;7.72;2.88;;;21.60;64.40;;;;;;5073951;28;20071;-68
2023/05/23 07:34:25;;;;;;;8.77;3.00;;;21.60;64.30;;;;;;5067690;28;20048;-68
2023/05/23 07:36:51;;;;;;;5.63;2.70;;;21.60;64.40;;;;;;5062690;28;20041;-69
2023/05/23 07:39:20;;;;;;;7.93;3.13;;;21.60;64.40;;;;;;5058265;28;20049;-69
2023/05/23 07:41:47;;;;;;;11.80;3.20;;;21.60;64.30;;;;;;5054466;28;20080;-68
2023/05/23 07:44:12;;;;;;;5.53;2.78;;;21.60;64.30;;;;;;5067208;28;20037;-68
2023/05/23 07:46:38;;;;;;;6.00;2.45;;;21.60;64.20;;;;;;5071753;28;20043;-69
2023/05/23 07:49:03;;;;;;;6.57;2.78;;;21.60;64.10;;;;;;5066606;28;20129;-69
2023/05/23 07:51:29;;;;;;;7.53;2.75;;;21.60;64.10;;;;;;5060078;28;20121;-71
2023/05/23 07:53:55;;;;;;;6.40;2.35;;;21.60;64.10;;;;;;5071077;28;20776;-70
2023/05/23 07:56:20;;;;;;;7.75;2.70;;;21.60;64.10;;;;;;5068664;28;20048;-69
2023/05/23 07:58:46;;;;;;;7.70;2.95;;;21.60;64.00;;;;;;5072629;28;20051;-69
2023/05/23 08:01:11;;;;;;;10.18;3.00;;;21.60;64.00;;;;;;5072522;28;20055;-68
2023/05/23 08:03:37;;;;;;;10.85;2.53;;;21.60;64.00;;;;;;5073091;28;20041;-69
2023/05/23 08:06:03;;;;;;;9.15;2.60;;;21.60;63.90;;;;;;5072630;28;20048;-68
2023/05/23 08:08:28;;;;;;;6.50;2.70;;;21.60;63.80;;;;;;5072847;28;20041;-68
2023/05/23 08:10:54;;;;;;;9.15;2.60;;;21.60;63.80;;;;;;5073017;28;20045;-67
2023/05/23 08:13:19;;;;;;;7.78;2.33;;;21.60;63.80;;;;;;5071754;28;20053;-67
2023/05/23 08:15:45;;;;;;;8.27;2.90;;;21.60;63.90;;;;;;5074025;28;20045;-68
2023/05/23 08:18:11;;;;;;;5.45;2.33;;;21.60;63.90;;;;;;5072301;28;20040;-63
2023/05/23 08:20:36;;;;;;;7.65;2.28;;;21.60;63.80;;;;;;5073577;28;20041;-67
2023/05/23 08:23:02;;;;;;;6.55;2.67;;;21.60;63.70;;;;;;5074287;28;20072;-68
2023/05/23 08:25:31;;;;;;;9.95;2.92;;;21.60;63.70;;;;;;5072494;28;20098;-66
2023/05/23 08:27:57;;;;;;;10.57;2.70;;;21.60;63.60;;;;;;5074904;28;20135;-65
2023/05/23 08:30:24;;;;;;;6.95;2.80;;;21.60;63.60;;;;;;5092694;28;20048;-65
2023/05/23 08:32:51;;;;;;;7.50;2.63;;;21.60;63.70;;;;;;5089205;28;20044;-65
2023/05/23 08:35:17;;;;;;;10.23;3.40;;;21.60;63.80;;;;;;5073159;28;20056;-65
2023/05/23 08:37:44;;;;;;;7.57;2.40;;;21.60;63.80;;;;;;5071729;28;20315;-66
2023/05/23 08:40:13;;;;;;;8.40;2.93;;;21.70;63.80;;;;;;5070139;28;20076;-69
2023/05/23 08:42:39;;;;;;;7.18;2.70;;;21.60;63.50;;;;;;5072462;28;20059;-67
2023/05/23 08:45:05;;;;;;;6.28;2.60;;;21.60;63.60;;;;;;5072386;28;20044;-68
2023/05/23 08:47:30;;;;;;;9.40;2.70;;;21.60;63.50;;;;;;5053346;28;20496;-67
2023/05/23 08:49:56;;;;;;;6.10;2.72;;;21.70;63.70;;;;;;5068157;28;20033;-64
2023/05/23 08:52:22;;;;;;;7.63;2.40;;;21.70;63.70;;;;;;5055206;28;20052;-66
2023/05/23 08:54:47;;;;;;;7.10;2.17;;;21.70;63.70;;;;;;5055576;28;20452;-67
2023/05/23 08:57:13;;;;;;;10.00;2.97;;;21.70;63.70;;;;;;5053663;28;20047;-66
2023/05/23 08:59:38;;;;;;;7.10;2.72;;;21.70;63.70;;;;;;5055513;28;20032;-66
2023/05/23 09:02:06;;;;;;;6.70;2.78;;;21.70;63.70;;;;;;5055195;28;20049;-65
2023/05/23 09:04:32;;;;;;;6.77;2.47;;;21.70;63.80;;;;;;5071871;28;20483;-66
2023/05/23 09:06:57;;;;;;;10.80;2.63;;;21.70;63.90;;;;;;5071857;28;20375;-67
2023/05/23 09:09:23;;;;;;;7.80;2.50;;;21.80;63.60;;;;;;5054359;28;20051;-67
2023/05/23 09:11:49;;;;;;;7.10;2.58;;;21.70;63.60;;;;;;5054897;28;20040;-67
2023/05/23 09:14:16;;;;;;;8.05;2.45;;;21.80;63.50;;;;;;5038246;28;20068;-67
2023/05/23 09:16:46;;;;;;;8.00;2.60;;;21.80;63.50;;;;;;5064248;28;20078;-67
2023/05/23 09:19:12;;;;;;;7.45;2.70;;;21.80;63.60;;;;;;5062624;28;20404;-66
2023/05/23 09:21:42;;;;;;;8.13;2.65;;;21.80;63.70;;;;;;5071264;28;20055;-65
2023/05/23 09:24:08;;;;;;;8.45;2.65;;;21.90;63.70;;;;;;5072236;28;20047;-65
2023/05/23 09:26:33;;;;;;;9.52;2.88;;;21.90;63.70;;;;;;5072446;28;20056;-65
2023/05/23 09:28:59;;;;;;;8.02;2.33;;;21.90;63.70;;;;;;5071111;28;20071;-65
2023/05/23 09:31:29;;;;;;;6.97;2.50;;;21.90;63.70;;;;;;5070151;28;20044;-65
2023/05/23 09:33:54;;;;;;;7.63;2.92;;;21.90;63.80;;;;;;5038206;28;20059;-65
2023/05/23 09:36:20;;;;;;;7.47;2.35;;;21.90;63.70;;;;;;5070231;28;20037;-64
2023/05/23 09:38:46;;;;;;;10.20;2.80;;;21.90;63.70;;;;;;5068962;28;20090;-64
2023/05/23 09:41:13;;;;;;;12.55;2.50;;;21.90;63.60;;;;;;5069942;28;20373;-64
2023/05/23 09:43:39;;;;;;;7.32;2.58;;;21.90;63.60;;;;;;5072111;28;20526;-64
2023/05/23 09:46:11;;;;;;;8.05;2.97;;;21.90;63.60;;;;;;5071416;28;20048;-65
2023/05/23 09:48:37;;;;;;;5.65;2.08;;;22.00;63.60;;;;;;5072544;28;20123;-65
2023/05/23 09:51:08;;;;;;;8.27;2.58;;;22.00;63.60;;;;;;5072287;28;20123;-67
2023/05/23 09:53:33;;;;;;;8.65;2.88;;;22.00;63.50;;;;;;5070568;28;20045;-65
2023/05/23 09:55:59;;;;;;;8.32;2.47;;;22.00;63.50;;;;;;5070822;28;20119;-65
2023/05/23 09:58:25;;;;;;;5.25;2.50;;;22.00;63.50;;;;;;5053657;28;20094;-81
2023/05/23 10:00:51;;;;;;;6.25;2.45;;;22.00;63.40;;;;;;5054658;28;20098;-70
2023/05/23 10:03:17;;;;;;;6.32;2.10;;;22.00;63.30;;;;;;5076623;28;20445;-65
2023/05/23 10:05:44;;;;;;;6.72;2.60;;;22.00;63.40;;;;;;5072578;28;20048;-65
2023/05/23 10:08:30;;;;;;;6.97;2.28;;;21.90;63.30;;;;;;5071888;28;20419;-66
2023/05/23 10:10:55;;;;;;;6.32;2.15;;;22.00;63.30;;;;;;5056799;28;20045;-66
2023/05/23 10:13:25;;;;;;;7.63;2.25;;;21.90;63.20;;;;;;5080491;28;20066;-67
2023/05/23 10:15:52;;;;;;;6.75;2.50;;;22.00;63.20;;;;;;5089703;28;20040;-67
2023/05/23 10:18:20;;;;;;;9.75;2.53;;;22.00;63.20;;;;;;5054280;28;20055;-66
2023/05/23 10:20:49;;;;;;;8.65;2.83;;;22.00;63.20;;;;;;5053473;28;20044;-66
2023/05/23 10:23:15;;;;;;;5.55;2.55;;;21.90;63.10;;;;;;5037594;28;20049;-66
2023/05/23 10:25:41;;;;;;;7.28;2.60;;;22.00;63.10;;;;;;5071023;28;20048;-65
2023/05/23 10:28:06;;;;;;;7.95;2.40;;;22.00;63.00;;;;;;5071150;28;20102;-65
2023/05/23 10:30:32;;;;;;;9.20;2.28;;;21.90;62.70;;;;;;5054269;28;20056;-64
2023/05/23 10:32:58;;;;;;;7.22;2.15;;;21.90;62.50;;;;;;5072707;28;20043;-65
2023/05/23 10:35:37;;;;;;;8.35;2.38;;;22.00;62.40;;;;;;5053425;28;20048;-65
2023/05/23 10:38:15;;;;;;;7.53;2.35;;;22.00;62.20;;;;;;5055522;28;20036;-64
2023/05/23 10:40:56;;;;;;;9.77;2.72;;;22.00;62.20;;;;;;5075225;28;20055;-64
2023/05/23 10:43:26;;;;;;;8.23;2.85;;;22.00;62.30;;;;;;5074549;28;20563;-64
2023/05/23 10:45:52;;;;;;;6.03;2.47;;;22.00;62.30;;;;;;5058521;28;20040;-65
2023/05/23 10:48:21;;;;;;;7.70;2.42;;;22.00;62.20;;;;;;5073754;28;20041;-65
2023/05/23 10:51:01;;;;;;;6.53;2.60;;;22.00;62.20;;;;;;5074797;28;20131;-65
2023/05/23 10:53:28;;;;;;;7.85;2.92;;;22.00;62.00;;;;;;5074371;28;20037;-66
2023/05/23 10:55:55;;;;;;;11.57;3.05;;;22.00;62.60;;;;;;5075305;28;20483;-65
2023/05/23 10:58:21;;;;;;;8.38;3.03;;;22.00;61.70;;;;;;5075933;28;20044;-66
2023/05/23 11:01:01;;;;;;;10.32;2.90;;;22.00;61.50;;;;;;5071990;28;20474;-65
2023/05/23 11:03:34;;;;;;;9.80;3.33;;;22.00;61.10;;;;;;5075196;28;20048;-66
2023/05/23 11:06:01;;;;;;;9.95;3.50;;;22.00;61.00;;;;;;5075088;28;20120;-66
2023/05/23 11:08:28;;;;;;;8.13;2.70;;;22.00;60.90;;;;;;5072715;28;20044;-65
2023/05/23 11:11:03;;;;;;;13.05;3.35;;;22.00;60.90;;;;;;5072045;28;20053;-66
2023/05/23 11:13:55;;;;;;;11.85;3.72;;;22.00;60.80;;;;;;5078065;28;20085;-66
2023/05/23 11:16:31;;;;;;;9.05;3.40;;;22.00;61.00;;;;;;5070825;28;20051;-65
2023/05/23 11:19:18;;;;;;;11.38;3.05;;;22.00;61.00;;;;;;5072071;28;20072;-66
2023/05/23 11:22:00;;;;;;;12.82;3.22;;;22.00;61.20;;;;;;5074767;28;20046;-66
2023/05/23 11:24:45;;;;;;;9.13;2.92;;;22.10;61.30;;;;;;5074359;28;20055;-66
2023/05/23 11:27:11;;;;;;;8.85;2.90;;;22.00;61.20;;;;;;5071068;28;20044;-66
2023/05/23 11:29:36;;;;;;;10.93;3.00;;;22.00;61.30;;;;;;5069675;28;20056;-68
2023/05/23 11:32:09;;;;;;;8.80;3.20;;;22.00;61.30;;;;;;5070344;28;20040;-67
2023/05/23 11:34:36;;;;;;;10.90;3.17;;;22.10;61.40;;;;;;5056987;28;20123;-67
2023/05/23 11:37:02;;;;;;;6.53;2.70;;;22.10;61.40;;;;;;5055897;28;20056;-68
2023/05/23 11:39:27;;;;;;;7.88;3.10;;;22.10;61.40;;;;;;5072997;28;20048;-68
2023/05/23 11:42:02;;;;;;;9.35;3.35;;;22.10;61.50;;;;;;5056545;28;20045;-68
2023/05/23 11:44:28;;;;;;;8.95;2.58;;;22.10;61.50;;;;;;5073474;28;20174;-68
2023/05/23 11:47:03;;;;;;;13.13;3.30;;;22.10;61.50;;;;;;5072290;28;20134;-66
2023/05/23 11:49:38;;;;;;;8.82;3.17;;;22.10;61.40;;;;;;5074552;28;20072;-65
2023/05/23 11:52:05;;;;;;;7.60;2.85;;;22.10;61.30;;;;;;5066050;28;20033;-71
2023/05/23 11:54:31;;;;;;;8.63;2.50;;;22.10;61.10;;;;;;5064983;28;20047;-69
2023/05/23 11:56:57;;;;;;;8.93;2.60;;;22.10;61.00;;;;;;5063562;28;20045;-70
2023/05/23 11:59:25;;;;;;;8.85;2.60;;;22.20;60.90;;;;;;5054549;28;20036;-72
2023/05/23 12:01:54;;;;;;;11.00;2.88;;;22.20;60.80;;;;;;5068481;28;20427;-69
2023/05/23 12:04:19;;;;;;;10.63;3.17;;;22.20;60.80;;;;;;5073885;28;20055;-68
2023/05/23 12:06:48;;;;;;;19.05;3.88;;;22.20;60.80;;;;;;5073621;28;20123;-69
2023/05/23 12:09:14;;;;;;;18.70;4.32;;;22.20;60.80;;;;;;5073130;28;20044;-69
2023/05/23 12:11:40;;;;;;;26.85;6.15;;;22.20;60.90;;;;;;5072655;28;20037;-69
2023/05/23 12:14:06;;;;;;;23.42;5.22;;;22.20;60.90;;;;;;5073426;28;20400;-70
2023/05/23 12:16:32;;;;;;;20.45;4.50;;;22.30;61.00;;;;;;5074428;28;20080;-71
2023/05/23 12:18:59;;;;;;;15.07;4.07;;;22.30;61.00;;;;;;5072950;28;20467;-67
2023/05/23 12:21:25;;;;;;;17.17;4.30;;;22.30;61.00;;;;;;5072707;28;20496;-67
2023/05/23 12:23:51;;;;;;;14.80;4.00;;;22.30;60.80;;;;;;5074025;28;20033;-67
2023/05/23 12:26:16;;;;;;;16.15;3.72;;;22.30;60.70;;;;;;5072362;28;20038;-69
2023/05/23 12:28:46;;;;;;;12.45;3.83;;;22.30;60.60;;;;;;5072371;28;20037;-66
2023/05/23 12:31:15;;;;;;;12.10;3.55;;;22.30;60.50;;;;;;5072085;28;20128;-71
2023/05/23 12:33:44;;;;;;;24.52;4.15;;;22.40;60.50;;;;;;5071856;28;20047;-71
2023/05/23 12:36:10;;;;;;;15.45;3.78;;;22.30;60.50;;;;;;5073832;28;20076;-66
2023/05/23 12:38:36;;;;;;;42.60;13.15;;;22.30;60.50;;;;;;5074066;28;20040;-63
2023/05/23 12:41:15;;;;;;;64.13;30.33;;;22.40;61.30;;;;;;5071361;28;20075;-65
2023/05/23 12:43:48;;;;;;;27.90;8.35;;;22.40;61.40;;;;;;5074002;28;20575;-65